Verona Landing, California
Current Conditions -  °F | °C
As of 12:53 AM on Friday 24 Oct 2014 (Local Time) from KSMF Reporting Station
Clear Clear  
Wind Chill: 56°   Ceiling: Unl
Heat Index: 56°   Visibility: 10mi
Dew Point: 52°   Wind: 7mph
Humidity: 87%   Direction: 340°NNW
Pressure: 29.99"   Gusts: NA
Location:  38.8689°N, 121.569°W
Report Text: KSMF 240753Z 34006KT 10SM CLR 13/11 A2999 RMK AO2 SLP156 T01330111 402390133
Loading
Personal Weather Stations






























Interactive Weather Map
Tropical Storm Tracking
New forecast layout! Learn more

10-Day Weather Forecast

Advertisements
Track Severe Weather on mobile